Terminal Aerodrome Forecast
Issued by NWS Mt. Holly, NJ

Home | Current Version | Previous Version | Text Only | Print | Product List | Glossary On
Versions: 1 2 3 4 5 6 7 8 9 10 11 12 13 14 15 16 17 18 19 20 21
852
FTUS41 KPHI 231128
TAFRDG
TAF
KRDG 231128Z 2312/2412 35006KT P6SM SCT250
      TEMPO 2312/2314 BKN080
     FM231700 31006KT P6SM FEW250
     FM241100 00000KT P6SM FEW250=

USA.gov is the U.S. government's official web portal to all federal, state and local government web resources and services.